Time;durP1;ratioP1;P1;durP2;ratioP2;P2;SDS_P1;SDS_P2;PMS_P1;PMS_P2;Temp;Humidity;BMP_temperature;BMP_pressure;BME280_temperature;BME280_humidity;BME280_pressure;Samples;Min_cycle;Max_cycle;Signal;HPM_P1;HPM_P2
2023/06/10 00:00:06;;;;;;;7.72;7.28;;;;;;;18.74;100.00;99753.75;10417787;28;20045;-68
2023/06/10 00:05:16;;;;;;;7.55;7.10;;;;;;;18.90;100.00;99759.69;10419070;28;20055;-68
2023/06/10 00:10:18;;;;;;;8.18;7.68;;;;;;;18.74;100.00;99762.59;10416466;28;20510;-68
2023/06/10 00:15:19;;;;;;;9.18;8.55;;;;;;;18.63;100.00;99763.28;10417393;28;20132;-68
2023/06/10 00:20:24;;;;;;;8.35;7.82;;;;;;;18.69;100.00;99769.16;10417581;28;20041;-68
2023/06/10 00:25:27;;;;;;;7.70;7.00;;;;;;;19.10;100.00;99764.47;10399852;28;20621;-68
2023/06/10 00:30:28;;;;;;;7.25;6.85;;;;;;;19.08;100.00;99771.72;10418774;28;20071;-68
2023/06/10 00:35:30;;;;;;;8.07;7.57;;;;;;;18.85;100.00;99765.34;10415410;28;20052;-67
2023/06/10 00:40:40;;;;;;;9.52;8.75;;;;;;;18.42;100.00;99770.13;10415495;28;20045;-66
2023/06/10 00:45:42;;;;;;;8.25;7.75;;;;;;;18.33;100.00;99778.72;10416034;28;20054;-67
2023/06/10 00:50:46;;;;;;;8.02;7.43;;;;;;;18.30;100.00;99781.59;10416499;28;20041;-67
2023/06/10 00:55:48;;;;;;;9.70;8.48;;;;;;;18.50;100.00;99791.69;10398351;28;20077;-67
2023/06/10 01:00:51;;;;;;;8.18;7.68;;;;;;;18.21;100.00;99795.50;10416517;28;20056;-67
2023/06/10 01:06:33;;;;;;;8.57;7.97;;;;;;;18.21;100.00;99811.47;10416027;28;20049;-67
2023/06/10 01:11:43;;;;;;;8.55;8.05;;;;;;;18.17;100.00;99825.94;10414231;28;20049;-67
2023/06/10 01:16:45;;;;;;;8.50;8.00;;;;;;;18.07;100.00;99823.03;10415938;28;20037;-67
2023/06/10 01:21:48;;;;;;;9.63;8.93;;;;;;;18.23;100.00;99820.19;10414055;28;20096;-67
2023/06/10 01:26:55;;;;;;;8.35;7.85;;;;;;;18.16;100.00;99825.06;10416301;28;20040;-67
2023/06/10 01:32:21;;;;;;;8.77;8.23;;;;;;;18.08;100.00;99832.72;10414928;28;20033;-67
2023/06/10 01:37:26;;;;;;;8.15;7.65;;;;;;;17.89;100.00;99838.38;10415004;28;20099;-67
2023/06/10 01:42:28;;;;;;;9.20;8.70;;;;;;;17.83;100.00;99831.63;10397194;28;20521;-67
2023/06/10 01:47:31;;;;;;;10.35;9.63;;;;;;;17.43;100.00;99843.94;10415020;28;20044;-67
2023/06/10 01:52:34;;;;;;;10.95;10.05;;;;;;;17.15;100.00;99842.16;10413710;28;20045;-67
2023/06/10 01:57:36;;;;;;;8.73;8.13;;;;;;;17.32;100.00;99839.31;10414409;28;20459;-67
2023/06/10 02:02:38;;;;;;;9.25;8.75;;;;;;;17.22;100.00;99847.94;10415582;28;20041;-67
2023/06/10 02:07:40;;;;;;;8.48;7.97;;;;;;;17.36;100.00;99853.25;10413205;28;20071;-67
2023/06/10 02:12:41;;;;;;;8.65;8.05;;;;;;;17.38;100.00;99857.50;10412766;28;20041;-67
2023/06/10 02:17:44;;;;;;;8.68;7.95;;;;;;;17.17;100.00;99860.66;10419868;28;20067;-67
2023/06/10 02:22:47;;;;;;;8.10;7.50;;;;;;;17.04;100.00;99860.53;10420915;28;20387;-67
2023/06/10 02:27:48;;;;;;;8.90;8.30;;;;;;;17.00;100.00;99865.22;10420178;28;20053;-67
2023/06/10 02:32:52;;;;;;;7.28;6.88;;;;;;;16.82;100.00;99867.19;10420542;28;20099;-67
2023/06/10 02:37:54;;;;;;;8.63;8.13;;;;;;;16.97;100.00;99869.84;10419999;28;20461;-67
2023/06/10 02:42:58;;;;;;;9.48;8.60;;;;;;;17.03;100.00;99872.13;10422142;28;20061;-67
2023/06/10 02:48:00;;;;;;;8.98;8.27;;;;;;;16.92;100.00;99863.97;10420060;28;20468;-67
2023/06/10 02:53:04;;;;;;;9.20;8.45;;;;;;;16.57;100.00;99859.78;10419867;28;20072;-67
2023/06/10 02:58:08;;;;;;;8.68;8.18;;;;;;;16.33;100.00;99855.91;10419693;28;20140;-68
2023/06/10 03:03:11;;;;;;;9.27;8.57;;;;;;;16.35;100.00;99860.19;10419452;28;20098;-67
2023/06/10 03:08:21;;;;;;;9.70;9.10;;;;;;;16.35;100.00;99860.19;10419267;28;20095;-68
2023/06/10 03:13:23;;;;;;;9.85;9.25;;;;;;;16.10;100.00;99860.75;10419901;28;20112;-68
2023/06/10 03:18:26;;;;;;;8.95;8.45;;;;;;;16.13;100.00;99871.19;10402104;28;20115;-67
2023/06/10 03:23:29;;;;;;;9.98;9.38;;;;;;;16.54;100.00;99870.56;10418336;28;20049;-67
2023/06/10 03:28:31;;;;;;;9.55;8.82;;;;;;;16.52;100.00;99872.47;10416958;28;20045;-67
2023/06/10 03:33:33;;;;;;;10.43;9.75;;;;;;;16.15;100.00;99882.56;10419198;28;20041;-68
2023/06/10 03:38:36;;;;;;;9.38;8.88;;;;;;;16.25;100.00;99874.94;10419990;28;20423;-68
2023/06/10 03:43:40;;;;;;;10.48;9.68;;;;;;;16.54;100.00;99880.34;10418193;28;20132;-68
2023/06/10 03:48:42;;;;;;;10.80;9.80;;;;;;;16.22;100.00;99883.06;10417465;28;20116;-68
2023/06/10 03:53:45;;;;;;;11.05;10.23;;;;;;;16.39;100.00;99876.81;10416970;28;20415;-68
2023/06/10 03:58:47;;;;;;;11.13;10.05;;;;;;;16.51;100.00;99884.03;10417105;28;20110;-68
2023/06/10 04:03:51;;;;;;;9.30;8.70;;;;;;;16.50;100.00;99895.59;10417038;28;20041;-68
2023/06/10 04:08:53;;;;;;;10.02;9.43;;;;;;;16.55;100.00;99900.63;10417857;28;20041;-68
2023/06/10 04:13:55;;;;;;;10.43;9.73;;;;;;;16.73;100.00;99902.22;10417665;28;20111;-68
2023/06/10 04:18:58;;;;;;;11.00;10.20;;;;;;;16.75;100.00;99902.16;10416977;28;20052;-66
2023/06/10 04:24:01;;;;;;;9.93;9.32;;;;;;;16.86;100.00;99900.53;10383914;28;20045;-67
2023/06/10 04:29:03;;;;;;;9.50;8.90;;;;;;;17.07;100.00;99900.22;10416024;28;20049;-67
2023/06/10 04:34:07;;;;;;;10.95;10.02;;;;;;;17.43;100.00;99899.75;10417747;28;20041;-67
2023/06/10 04:39:10;;;;;;;8.25;7.78;;;;;;;17.56;100.00;99902.50;10431355;22;20138;-73
2023/06/10 04:44:13;;;;;;;8.98;8.38;;;;;;;17.53;100.00;99908.88;10415369;28;20076;-73
2023/06/10 04:49:16;;;;;;;11.32;10.43;;;;;;;17.52;100.00;99904.47;10374295;28;20473;-73
2023/06/10 04:54:18;;;;;;;8.55;7.97;;;;;;;17.71;100.00;99908.63;10375328;28;20456;-72
2023/06/10 04:59:19;;;;;;;10.45;9.65;;;;;;;17.73;100.00;99909.41;10375900;28;20103;-72
2023/06/10 05:04:21;;;;;;;10.73;9.75;;;;;;;17.88;99.23;99898.69;10376304;28;20084;-72
2023/06/10 05:09:23;;;;;;;9.65;8.85;;;;;;;18.14;96.00;99907.63;10375499;28;20108;-72
2023/06/10 05:14:25;;;;;;;7.63;7.15;;;;;;;18.53;92.54;99913.09;10375276;28;20070;-72
2023/06/10 05:19:27;;;;;;;7.57;7.00;;;;;;;19.01;88.90;99910.78;10375032;28;20056;-72
2023/06/10 05:24:29;;;;;;;6.63;6.22;;;;;;;19.81;83.81;99917.56;10373328;28;20080;-72
2023/06/10 05:29:30;;;;;;;8.15;7.50;;;;;;;19.93;82.85;99923.84;10374590;28;20042;-72
2023/06/10 05:34:32;;;;;;;8.25;7.45;;;;;;;20.10;83.45;99915.47;10374998;28;20403;-72
2023/06/10 05:39:37;;;;;;;8.52;7.65;;;;;;;19.83;83.41;99917.44;10389712;28;20042;-71
2023/06/10 05:44:39;;;;;;;8.10;7.50;;;;;;;19.93;85.31;99931.84;10375586;28;20054;-71
2023/06/10 05:49:41;;;;;;;6.65;6.20;;;;;;;20.45;80.67;99932.50;10377529;28;20388;-71
2023/06/10 05:54:42;;;;;;;6.75;6.25;;;;;;;20.84;76.08;99928.69;10382712;28;20104;-71
2023/06/10 05:59:44;;;;;;;5.90;5.50;;;;;;;21.06;72.22;99931.41;10391960;28;20038;-71
2023/06/10 06:04:46;;;;;;;6.88;6.28;;;;;;;21.29;73.00;99936.78;10417204;28;20454;-71
2023/06/10 06:09:48;;;;;;;6.75;6.20;;;;;;;21.31;71.74;99932.19;10382155;28;20081;-71
2023/06/10 06:14:49;;;;;;;7.28;6.82;;;;;;;20.81;73.47;99935.13;10382050;28;20038;-69
2023/06/10 06:19:51;;;;;;;6.65;6.15;;;;;;;21.71;72.76;99937.13;10381701;28;20045;-67
2023/06/10 06:24:53;;;;;;;6.05;5.53;;;;;;;22.02;68.84;99939.03;10378759;28;20069;-67
2023/06/10 06:29:55;;;;;;;5.25;4.88;;;;;;;22.86;67.33;99934.75;10381267;28;20507;-70
2023/06/10 06:34:58;;;;;;;5.85;5.45;;;;;;;22.93;62.40;99940.47;10381081;28;20491;-69
2023/06/10 06:40:00;;;;;;;5.13;4.60;;;;;;;22.95;63.16;99938.53;10381507;28;20076;-69
2023/06/10 06:45:05;;;;;;;5.65;5.20;;;;;;;23.00;63.84;99948.84;10381782;28;20128;-69
2023/06/10 06:50:07;;;;;;;5.45;4.80;;;;;;;23.28;60.82;99958.06;10363089;28;20096;-69
2023/06/10 06:55:09;;;;;;;5.63;5.13;;;;;;;22.92;63.61;99960.22;10380338;28;20045;-70
2023/06/10 07:00:12;;;;;;;5.20;4.80;;;;;;;22.87;64.35;99965.09;10379166;28;20411;-70
2023/06/10 07:05:14;;;;;;;4.47;4.18;;;;;;;22.60;65.77;99974.44;10379110;28;20074;-68
2023/06/10 07:10:16;;;;;;;7.20;4.60;;;;;;;22.51;66.81;99979.72;10379914;28;20042;-67
2023/06/10 07:15:18;;;;;;;3.97;3.78;;;;;;;22.86;65.43;99984.84;10380286;28;20049;-69
2023/06/10 07:20:20;;;;;;;4.07;3.88;;;;;;;22.65;64.56;99991.00;10378630;28;20462;-68
2023/06/10 07:25:22;;;;;;;3.70;3.50;;;;;;;22.35;66.60;99990.81;10380118;28;20117;-69
2023/06/10 07:30:23;;;;;;;4.38;3.97;;;;;;;22.24;67.65;99993.53;10379246;28;20042;-69
2023/06/10 07:35:25;;;;;;;4.20;3.90;;;;;;;22.40;65.41;99988.63;10379458;28;20117;-68
2023/06/10 07:40:27;;;;;;;4.43;4.03;;;;;;;22.43;69.31;100001.78;10378768;28;20038;-69
2023/06/10 07:45:29;;;;;;;6.78;4.45;;;;;;;22.63;68.08;99995.63;10379544;28;20046;-69
2023/06/10 07:50:30;;;;;;;4.10;3.83;;;;;;;22.83;65.09;99993.97;10379239;28;20052;-69
2023/06/10 07:55:32;;;;;;;4.20;3.90;;;;;;;23.01;65.36;100002.31;10378011;28;20046;-69
2023/06/10 08:00:34;;;;;;;4.85;4.40;;;;;;;23.24;65.37;100004.91;10376574;28;20042;-69
2023/06/10 08:05:36;;;;;;;4.45;4.05;;;;;;;23.21;65.92;99997.13;10376689;28;20068;-69
2023/06/10 08:10:38;;;;;;;4.65;4.20;;;;;;;23.33;64.03;100001.44;10377515;28;20046;-69
2023/06/10 08:15:40;;;;;;;5.65;5.15;;;;;;;23.06;66.45;100009.97;10376357;28;20051;-69
2023/06/10 08:20:42;;;;;;;5.18;4.65;;;;;;;23.45;65.88;100007.59;10390950;28;20508;-69
2023/06/10 08:25:43;;;;;;;4.57;4.28;;;;;;;23.84;65.50;100014.06;10381056;28;20443;-69
2023/06/10 08:30:46;;;;;;;5.38;3.75;;;;;;;24.46;61.42;100017.56;10361280;28;20138;-70
2023/06/10 08:35:58;;;;;;;4.40;4.10;;;;;;;25.49;58.13;100017.00;10418444;28;20056;-70
2023/06/10 08:41:01;;;;;;;4.97;4.57;;;;;;;25.68;55.17;100014.28;10417218;28;20069;-70
2023/06/10 08:46:03;;;;;;;4.80;4.50;;;;;;;26.33;54.10;100008.94;10417514;28;20130;-69
2023/06/10 08:51:05;;;;;;;4.25;3.83;;;;;;;26.34;52.29;100014.19;10416733;28;20033;-70
2023/06/10 08:56:09;;;;;;;4.38;3.92;;;;;;;26.01;53.30;100006.69;10416900;28;20099;-70
2023/06/10 09:01:11;;;;;;;4.65;4.15;;;;;;;26.01;56.49;100001.28;10417004;28;20037;-71
2023/06/10 09:06:13;;;;;;;4.72;3.97;;;;;;;25.67;55.33;99996.41;10417307;28;20060;-70
2023/06/10 09:11:15;;;;;;;4.68;4.30;;;;;;;25.69;55.75;99996.28;10417343;28;20124;-71
2023/06/10 09:16:17;;;;;;;4.70;4.30;;;;;;;25.75;54.55;99999.22;10415820;28;20049;-71
2023/06/10 09:21:28;;;;;;;4.35;4.05;;;;;;;24.96;55.07;99995.94;10416633;28;20399;-70
2023/06/10 09:26:30;;;;;;;4.32;4.00;;;;;;;24.94;52.57;99990.72;10417059;28;20052;-70
2023/06/10 09:31:36;;;;;;;4.30;4.00;;;;;;;24.72;55.64;99994.53;10414773;28;20045;-71
2023/06/10 09:36:39;;;;;;;8.25;4.30;;;;;;;25.06;55.23;100003.03;10416797;28;20407;-70
2023/06/10 09:41:41;;;;;;;4.45;3.72;;;;;;;24.68;54.21;100003.88;10415919;28;20112;-70
2023/06/10 09:46:50;;;;;;;3.58;3.33;;;;;;;24.84;54.63;100000.63;10415573;28;20545;-71
2023/06/10 09:51:53;;;;;;;4.10;3.80;;;;;;;25.02;53.99;100004.31;10416324;28;20496;-71
2023/06/10 09:56:56;;;;;;;4.22;3.92;;;;;;;24.69;55.21;100002.88;10415972;28;20483;-70
2023/06/10 10:02:00;;;;;;;4.45;4.03;;;;;;;24.96;55.98;99993.25;10415212;28;20060;-70
2023/06/10 10:07:02;;;;;;;3.58;3.38;;;;;;;25.14;54.43;100005.03;10415457;28;20061;-70
2023/06/10 10:12:10;;;;;;;3.75;3.45;;;;;;;25.14;51.35;100000.50;10415572;28;20037;-70
2023/06/10 10:17:14;;;;;;;3.65;3.45;;;;;;;24.92;53.34;99988.19;10415449;28;20121;-70
2023/06/10 10:22:39;;;;;;;3.88;3.30;;;;;;;25.14;56.07;99978.13;10414872;28;20091;-70
2023/06/10 10:27:46;;;;;;;3.72;3.42;;;;;;;25.54;51.41;99987.81;10414567;28;20037;-70
2023/06/10 10:33:04;;;;;;;4.60;3.38;;;;;;;25.14;52.97;99983.50;10414356;28;20041;-70
2023/06/10 10:38:11;;;;;;;3.88;3.58;;;;;;;24.96;56.88;99988.72;10434865;23;20061;-73
2023/06/10 10:43:15;;;;;;;4.03;3.70;;;;;;;25.33;56.05;99991.56;10438907;28;20041;-73
2023/06/10 10:48:17;;;;;;;5.10;3.88;;;;;;;25.61;55.84;99999.72;10422999;28;20045;-73
2023/06/10 10:53:20;;;;;;;3.67;3.38;;;;;;;25.59;57.39;99994.47;10423100;28;20372;-73
2023/06/10 10:58:24;;;;;;;5.35;3.70;;;;;;;25.27;54.89;99989.44;10423725;28;20045;-73
2023/06/10 11:03:32;;;;;;;4.35;3.95;;;;;;;25.63;51.62;99977.03;10421915;28;20038;-74
2023/06/10 11:08:34;;;;;;;3.67;3.38;;;;;;;25.90;52.83;99972.72;10422627;28;20056;-73
2023/06/10 11:13:38;;;;;;;3.55;3.25;;;;;;;25.94;52.83;99976.78;10422276;28;20463;-72
2023/06/10 11:18:41;;;;;;;7.53;3.60;;;;;;;26.01;54.16;99966.28;10421855;28;20065;-72
2023/06/10 11:23:43;;;;;;;3.67;3.38;;;;;;;26.25;48.71;99963.84;10421705;28;20061;-73
2023/06/10 11:28:46;;;;;;;4.13;3.72;;;;;;;26.67;46.87;99955.25;10421899;28;20053;-72
2023/06/10 11:33:52;;;;;;;3.38;3.08;;;;;;;26.64;46.99;99940.22;10421988;28;20034;-71
2023/06/10 11:38:59;;;;;;;3.55;3.25;;;;;;;27.06;46.03;99949.53;10422347;28;20046;-72
2023/06/10 11:44:04;;;;;;;3.90;3.60;;;;;;;26.39;46.51;99941.81;10422284;28;20098;-72
2023/06/10 11:49:06;;;;;;;4.10;3.78;;;;;;;26.30;54.41;99944.56;10417950;28;20049;-72
2023/06/10 11:54:09;;;;;;;4.20;3.72;;;;;;;26.36;46.17;99938.56;10420376;28;20042;-72
2023/06/10 11:59:11;;;;;;;3.65;3.17;;;;;;;27.31;46.99;99929.81;10419836;28;20475;-72
2023/06/10 12:04:18;;;;;;;4.35;3.58;;;;;;;28.00;43.28;99938.81;10418530;28;20045;-72
2023/06/10 12:09:30;;;;;;;3.72;3.42;;;;;;;27.78;42.35;99931.28;10420993;28;20455;-71
2023/06/10 12:14:56;;;;;;;4.63;3.03;;;;;;;27.28;42.29;99922.06;10419569;28;20479;-71
2023/06/10 12:20:23;;;;;;;3.63;3.22;;;;;;;27.74;43.02;99932.63;10419631;28;20045;-71
2023/06/10 12:25:29;;;;;;;5.82;3.72;;;;;;;28.45;40.35;99921.38;10419222;28;20049;-72
2023/06/10 12:30:31;;;;;;;;;;;;;;;28.77;40.36;99908.91;10419421;28;20037;-72
2023/06/10 12:35:33;;;;;;;3.55;3.22;;;;;;;29.10;38.16;99912.47;10417040;28;20374;-72
2023/06/10 12:40:37;;;;;;;4.72;2.88;;;;;;;28.85;37.42;99895.38;10416928;28;20049;-72
2023/06/10 12:45:44;;;;;;;3.40;3.20;;;;;;;28.62;38.08;99901.47;10419166;28;20049;-72
2023/06/10 12:50:58;;;;;;;3.55;3.20;;;;;;;28.46;40.18;99906.84;10416938;28;20292;-72
2023/06/10 12:56:02;;;;;;;5.00;3.58;;;;;;;29.28;40.56;99898.75;10419525;28;20490;-72
2023/06/10 13:01:04;;;;;;;5.95;2.50;;;;;;;29.36;34.63;99899.56;10417657;28;20034;-72
2023/06/10 13:06:06;;;;;;;4.40;3.22;;;;;;;28.73;36.23;99899.44;10418409;28;20049;-71
2023/06/10 13:11:08;;;;;;;3.63;3.30;;;;;;;28.72;35.46;99911.28;10418615;28;20117;-71
2023/06/10 13:16:10;;;;;;;3.70;3.40;;;;;;;28.78;36.49;99908.75;10418308;28;20519;-72
2023/06/10 13:21:12;;;;;;;4.32;3.70;;;;;;;28.99;37.43;99894.72;10419317;28;20434;-73
2023/06/10 13:26:16;;;;;;;3.83;2.65;;;;;;;28.45;35.32;99901.63;10417796;28;20112;-73
2023/06/10 13:31:19;;;;;;;2.55;2.35;;;;;;;28.42;33.00;99905.50;10417294;28;20434;-72
2023/06/10 13:36:21;;;;;;;5.63;3.00;;;;;;;28.48;34.74;99898.59;10400285;28;20499;-74
2023/06/10 13:41:23;;;;;;;3.67;2.83;;;;;;;28.20;35.06;99901.56;10418039;28;20045;-72
2023/06/10 13:46:26;;;;;;;3.00;2.80;;;;;;;28.46;35.23;99893.31;10416606;28;20487;-72
2023/06/10 13:51:28;;;;;;;2.80;2.40;;;;;;;28.15;33.63;99885.81;10417733;28;20120;-71
2023/06/10 13:56:30;;;;;;;5.38;2.78;;;;;;;28.07;36.19;99891.22;10417067;28;20116;-71
2023/06/10 14:01:32;;;;;;;2.95;2.60;;;;;;;28.08;35.03;99894.78;10415827;28;20046;-72
2023/06/10 14:06:34;;;;;;;2.33;2.00;;;;;;;28.41;30.91;99901.09;10414565;28;20046;-72
2023/06/10 14:11:36;;;;;;;3.00;2.70;;;;;;;28.13;32.03;99893.25;10419671;28;20049;-72
2023/06/10 14:16:38;;;;;;;2.88;2.38;;;;;;;28.00;31.08;99890.19;10423551;28;20410;-72
2023/06/10 14:21:44;;;;;;;2.35;2.15;;;;;;;28.42;30.25;99891.97;10424294;28;20041;-72
2023/06/10 14:26:45;;;;;;;2.83;2.55;;;;;;;28.56;30.69;99891.34;10423473;28;20046;-71
2023/06/10 14:31:47;;;;;;;2.55;2.30;;;;;;;28.58;31.48;99881.19;10423321;28;20048;-73
2023/06/10 14:36:49;;;;;;;3.15;2.70;;;;;;;28.63;32.12;99896.91;10405409;28;20055;-73
2023/06/10 14:41:52;;;;;;;4.10;2.42;;;;;;;28.78;31.84;99892.53;10423726;28;20041;-72
2023/06/10 14:46:54;;;;;;;2.60;2.40;;;;;;;28.65;32.62;99879.50;10422876;28;20510;-72
2023/06/10 14:51:56;;;;;;;3.58;2.60;;;;;;;28.56;29.22;99891.34;10422731;28;20041;-72
2023/06/10 14:56:58;;;;;;;2.85;2.60;;;;;;;28.63;30.66;99894.19;10421524;28;20046;-73
2023/06/10 15:02:00;;;;;;;3.22;2.35;;;;;;;28.66;29.78;99897.41;10423747;28;20125;-73
2023/06/10 15:07:02;;;;;;;3.75;2.70;;;;;;;29.01;29.74;99887.28;10404867;28;20056;-73
2023/06/10 15:12:05;;;;;;;5.15;2.97;;;;;;;29.01;29.40;99886.44;10422143;28;20483;-73
2023/06/10 15:17:07;;;;;;;3.20;2.95;;;;;;;29.15;30.05;99886.56;10420752;28;20087;-73
2023/06/10 15:22:11;;;;;;;3.30;2.97;;;;;;;29.36;30.67;99888.75;10419654;28;20072;-73
2023/06/10 15:27:13;;;;;;;3.55;3.17;;;;;;;29.27;31.65;99886.22;10421512;28;20056;-72
2023/06/10 15:32:15;;;;;;;4.18;3.17;;;;;;;29.41;32.20;99888.22;10420519;28;20038;-72
2023/06/10 15:37:20;;;;;;;3.25;2.95;;;;;;;29.21;32.02;99892.31;10420236;28;20125;-72
2023/06/10 15:42:23;;;;;;;3.75;3.45;;;;;;;29.27;31.72;99887.06;10421553;28;20033;-73
2023/06/10 15:47:25;;;;;;;3.88;3.55;;;;;;;28.50;34.80;99880.31;10419823;28;20100;-72
2023/06/10 15:52:27;;;;;;;4.03;3.63;;;;;;;28.08;34.11;99878.56;10419120;28;20076;-72
2023/06/10 15:57:29;;;;;;;4.35;3.47;;;;;;;28.28;34.17;99887.19;10419255;28;20055;-72
2023/06/10 16:02:31;;;;;;;4.55;3.30;;;;;;;28.62;33.72;99869.00;10420059;28;20038;-73
2023/06/10 16:07:37;;;;;;;3.17;2.90;;;;;;;28.79;33.02;99883.38;10419405;28;20430;-71
2023/06/10 16:12:39;;;;;;;5.18;3.97;;;;;;;28.13;33.49;99887.84;10420267;28;20552;-72
2023/06/10 16:17:41;;;;;;;4.28;3.78;;;;;;;27.87;34.16;99896.03;10419147;28;20429;-72
2023/06/10 16:22:42;;;;;;;5.07;3.42;;;;;;;27.86;34.03;99899.75;10419669;28;20438;-72
2023/06/10 16:27:44;;;;;;;3.72;3.13;;;;;;;27.58;35.20;99893.72;10419036;28;20537;-72
2023/06/10 16:32:46;;;;;;;4.13;3.30;;;;;;;27.64;35.93;99898.47;10419581;28;20044;-72
2023/06/10 16:43:04;;;;;;;5.43;3.72;;;;;;;26.87;34.43;99904.69;10374245;28;20050;-72
2023/06/10 16:48:06;;;;;;;4.15;3.72;;;;;;;26.74;34.70;99907.81;10374562;28;20054;-72
2023/06/10 16:53:08;;;;;;;3.35;2.95;;;;;;;26.77;34.69;99922.81;10376490;28;20507;-70
2023/06/10 16:58:10;;;;;;;4.18;3.88;;;;;;;26.63;35.15;99921.50;10375416;28;20042;-70
2023/06/10 17:03:12;;;;;;;3.60;3.30;;;;;;;26.65;35.91;99920.38;10375743;28;20038;-70
2023/06/10 17:08:14;;;;;;;3.83;3.35;;;;;;;26.30;35.93;99925.72;10374494;28;20054;-70
2023/06/10 17:13:16;;;;;;;4.45;3.17;;;;;;;26.30;35.56;99931.94;10373938;28;20069;-71
2023/06/10 17:18:18;;;;;;;10.57;9.80;;;;;;;26.07;36.27;99930.66;10375409;28;20118;-71
2023/06/10 17:23:20;;;;;;;3.85;3.55;;;;;;;26.08;36.09;99924.28;10375557;28;20042;-70
2023/06/10 17:28:22;;;;;;;5.22;4.93;;;;;;;25.72;38.06;99925.97;10374436;28;20046;-71
2023/06/10 17:33:24;;;;;;;4.10;3.80;;;;;;;25.79;35.94;99935.22;10375077;28;20089;-72
2023/06/10 17:38:25;;;;;;;4.43;3.55;;;;;;;25.44;37.16;99928.66;10373990;28;20053;-72
2023/06/10 17:43:27;;;;;;;3.15;2.85;;;;;;;25.24;37.50;99930.56;10378231;28;20091;-71
2023/06/10 17:48:29;;;;;;;3.30;2.97;;;;;;;25.05;38.28;99934.06;10414600;28;20116;-72
2023/06/10 17:53:31;;;;;;;3.85;3.55;;;;;;;25.04;38.01;99940.47;10415660;28;20080;-72
2023/06/10 17:58:32;;;;;;;4.60;3.60;;;;;;;25.09;37.78;99946.28;10415495;28;20056;-71
2023/06/10 18:03:36;;;;;;;4.38;3.95;;;;;;;24.97;38.30;99944.72;10415176;28;20037;-71
2023/06/10 18:08:38;;;;;;;3.90;3.50;;;;;;;24.97;38.40;99944.72;10415630;28;20045;-72
2023/06/10 18:13:39;;;;;;;3.80;3.50;;;;;;;24.81;38.86;99944.44;10400480;28;20581;-73
2023/06/10 18:18:42;;;;;;;4.35;4.05;;;;;;;24.70;40.14;99939.19;10374873;28;20044;-72
2023/06/10 18:23:45;;;;;;;7.13;3.78;;;;;;;24.61;40.32;99948.97;10374311;28;20034;-72
2023/06/10 18:28:47;;;;;;;4.15;3.78;;;;;;;24.59;40.38;99948.25;10391142;28;20050;-72
2023/06/10 18:33:48;;;;;;;4.05;3.75;;;;;;;24.44;41.08;99950.53;10408441;28;20125;-72
2023/06/10 18:38:50;;;;;;;3.85;3.55;;;;;;;24.35;42.94;99957.56;10373584;28;20088;-72
2023/06/10 18:43:52;;;;;;;4.90;4.18;;;;;;;24.20;44.96;99964.28;10375324;28;20081;-72
2023/06/10 18:48:54;;;;;;;5.28;4.88;;;;;;;24.00;46.68;99970.59;10414173;28;20053;-72
2023/06/10 18:53:55;;;;;;;6.65;5.50;;;;;;;23.67;47.81;99976.09;10383087;28;20041;-72
2023/06/10 18:58:57;;;;;;;7.00;6.40;;;;;;;23.62;48.31;99985.50;10379203;28;20480;-72
2023/06/10 19:03:59;;;;;;;7.35;6.65;;;;;;;23.32;48.62;99984.47;10380416;28;20042;-72
2023/06/10 19:09:01;;;;;;;7.57;6.85;;;;;;;23.07;50.08;99996.47;10380441;28;20062;-72
2023/06/10 19:14:06;;;;;;;7.20;6.60;;;;;;;23.00;50.46;100005.16;10378833;28;20038;-72
2023/06/10 19:19:08;;;;;;;6.65;6.18;;;;;;;22.66;51.68;100021.31;10379455;28;20050;-72
2023/06/10 19:24:10;;;;;;;6.68;6.18;;;;;;;22.45;52.33;100026.63;10379507;28;20048;-72
2023/06/10 19:29:11;;;;;;;7.25;6.75;;;;;;;22.14;54.07;100028.25;10379258;28;20104;-72
2023/06/10 19:34:13;;;;;;;6.95;6.45;;;;;;;22.08;55.78;100034.03;10380018;28;20088;-72
2023/06/10 19:39:15;;;;;;;7.03;6.30;;;;;;;21.52;57.42;100042.88;10379435;28;20060;-73
2023/06/10 19:44:17;;;;;;;8.68;8.05;;;;;;;21.61;57.63;100044.00;10379009;28;20121;-72
2023/06/10 19:49:18;;;;;;;8.43;7.82;;;;;;;21.58;58.42;100050.41;10378800;28;20438;-72
2023/06/10 19:54:21;;;;;;;8.32;7.57;;;;;;;21.23;59.65;100044.22;10378159;28;20037;-72
2023/06/10 19:59:23;;;;;;;8.27;7.10;;;;;;;21.00;60.37;100048.63;10378468;28;20046;-71
2023/06/10 20:04:25;;;;;;;8.23;7.53;;;;;;;20.92;61.60;100052.72;10377507;28;20489;-71
2023/06/10 20:09:27;;;;;;;8.27;7.47;;;;;;;20.98;62.17;100056.72;10376642;28;20041;-71
2023/06/10 20:14:28;;;;;;;8.77;8.02;;;;;;;20.90;61.66;100064.50;10377359;28;20538;-71
2023/06/10 20:19:30;;;;;;;9.07;8.32;;;;;;;20.83;62.66;100063.22;10378450;28;20554;-71
2023/06/10 20:24:32;;;;;;;9.68;8.95;;;;;;;20.51;64.30;100069.13;10376730;28;20038;-71
2023/06/10 20:29:34;;;;;;;10.52;9.60;;;;;;;20.43;65.00;100074.13;10376636;28;20053;-72
2023/06/10 20:34:36;;;;;;;10.38;9.43;;;;;;;20.36;65.32;100076.41;10376944;28;20052;-72
2023/06/10 20:39:37;;;;;;;9.77;9.00;;;;;;;19.92;67.32;100082.19;10376743;28;20038;-72
2023/06/10 20:44:39;;;;;;;9.98;9.27;;;;;;;20.01;68.52;100081.56;10376605;28;20046;-72
2023/06/10 20:49:41;;;;;;;10.40;9.60;;;;;;;19.75;70.15;100086.03;10377853;28;20137;-72
2023/06/10 20:54:42;;;;;;;11.07;9.45;;;;;;;19.65;70.58;100088.47;10376516;28;20048;-72
2023/06/10 20:59:44;;;;;;;10.88;9.85;;;;;;;19.69;70.19;100097.13;10376206;28;20049;-72
2023/06/10 21:04:46;;;;;;;13.02;12.13;;;;;;;19.69;69.22;100094.44;10375541;28;20046;-71
2023/06/10 21:09:48;;;;;;;12.82;11.73;;;;;;;19.52;71.04;100100.91;10375281;28;20488;-72
2023/06/10 21:14:50;;;;;;;14.93;13.77;;;;;;;19.45;70.79;100107.63;10374795;28;20042;-72
2023/06/10 21:19:51;;;;;;;15.70;14.15;;;;;;;19.29;72.14;100106.91;10374664;28;20041;-72
2023/06/10 21:24:53;;;;;;;16.33;15.20;;;;;;;19.01;74.01;100115.91;10374947;28;20076;-72
2023/06/10 21:29:55;;;;;;;16.55;15.13;;;;;;;18.76;76.53;100116.63;10373635;28;20056;-72
2023/06/10 21:34:57;;;;;;;15.27;14.10;;;;;;;18.85;74.95;100121.34;10375552;28;20048;-72
2023/06/10 21:39:59;;;;;;;13.98;12.98;;;;;;;18.67;76.31;100126.03;10374981;28;20045;-72
2023/06/10 21:45:00;;;;;;;13.43;12.05;;;;;;;18.82;74.08;100132.22;10374661;28;20085;-72
2023/06/10 21:50:03;;;;;;;13.68;12.57;;;;;;;18.53;75.68;100128.72;10374686;28;20049;-72
2023/06/10 21:55:05;;;;;;;11.50;10.70;;;;;;;18.65;74.35;100133.25;10374387;28;20038;-72
2023/06/10 22:00:13;;;;;;;11.00;10.10;;;;;;;18.49;73.59;100138.69;10374379;28;20141;-72
2023/06/10 22:05:16;;;;;;;11.15;10.02;;;;;;;18.34;75.16;100135.19;10374740;28;20073;-72
2023/06/10 22:10:18;;;;;;;11.82;10.63;;;;;;;18.30;74.81;100140.81;10374353;28;20042;-72
2023/06/10 22:15:19;;;;;;;10.38;9.68;;;;;;;18.26;75.04;100139.28;10373899;28;20116;-72
2023/06/10 22:20:21;;;;;;;10.52;9.52;;;;;;;18.39;73.60;100143.75;10373815;28;20092;-72
2023/06/10 22:25:23;;;;;;;8.13;7.40;;;;;;;18.25;71.23;100142.91;10373376;28;20049;-72
2023/06/10 22:30:25;;;;;;;7.82;7.25;;;;;;;18.23;71.16;100137.66;10373381;28;20068;-72
2023/06/10 22:35:26;;;;;;;8.25;7.57;;;;;;;18.25;69.61;100140.22;10379906;28;20038;-72
2023/06/10 22:40:28;;;;;;;6.97;6.47;;;;;;;18.01;69.33;100140.75;10381615;28;20042;-72
2023/06/10 22:45:30;;;;;;;7.82;6.78;;;;;;;17.98;67.59;100140.97;10380853;28;20129;-72
2023/06/10 22:50:31;;;;;;;6.68;6.18;;;;;;;18.02;67.04;100144.31;10381116;28;20355;-73
2023/06/10 22:55:33;;;;;;;11.55;6.97;;;;;;;17.87;66.73;100140.75;10380971;28;20038;-74
2023/06/10 23:00:35;;;;;;;6.53;5.93;;;;;;;17.63;66.76;100137.75;10381427;28;20046;-73
2023/06/10 23:05:37;;;;;;;6.30;5.43;;;;;;;17.66;65.83;100137.53;10379192;28;20065;-73
2023/06/10 23:10:38;;;;;;;5.38;4.90;;;;;;;17.71;64.94;100137.25;10380389;28;20046;-73
2023/06/10 23:15:42;;;;;;;5.50;5.10;;;;;;;17.76;64.28;100138.75;10379408;28;20042;-73
2023/06/10 23:20:44;;;;;;;5.57;4.90;;;;;;;17.61;64.64;100142.28;10379302;28;20128;-73